Cananeia, Brazil
Current Conditions -  °F | °C
As of 11:00 AM on Thursday 30 Oct 2014 (Local Time) from SBCT Reporting Station
Clear Clear  
Wind Chill: 82°   Ceiling: Unl
Heat Index: 82°   Visibility: 6mi
Dew Point: 46°   Wind: 2mph
Humidity: 28%   Direction: 30°NNE
Pressure: 29.94"   Gusts: NA
Location:  25.01°S, 47.93°W
Report Text: SBCT 301300Z 03002KT CAVOK 28/08 Q1014
Loading
Personal Weather Stations






























Interactive Weather Map
Tropical Storm Tracking
New forecast layout! Learn more

10-Day Weather Forecast

Advertisements
Track Severe Weather on mobile